Adel, OR

9:15 PM PDT on July 27, 2014 (GMT -0700)
RAWS CATNIP MOUNTAIN NV US (MCATN2) Elev 5750 ft | 41.92 °N, 119.50 °W | Change Station

Current weather conditions updated 48 minutes ago

Clear
Clear
81 °F
Feels Like 79 °F
N
7
Wind Variable Wind from North
Gusts 15.0 mph

Tomorrow is forecast to be nearly the same temperature as today.

Today
High -- | Low -- °F
--% Chance of Precip.
Yesterday
High -- | Low -- °F
Precip. -- in
5:46 AM 8:23 PM
New Moon, 1% visible
Pressure 30.22 in
Visibility 10.0 miles
Clouds Clear
Heat Index 79 °F
Dew Point 26 °F
Humidity 13%
Rainfall 0.00 in
Snow Depth Not available.
UV 0 out of 12
Pollen 4.70 out of 12
Air Quality Not available.
Flu Activity Not available.
METAR KLKV 280355Z AUTO 35006KT 10SM CLR 23/02 A3022 RMK AO1

More Conditions Fewer Conditions

Pressure 30.22 in
Visibility 10.0 miles
Clouds Clear
Heat Index 79 °F
Dew Point 26 °F
Humidity 13%
Rainfall 0.00 in
Snow Depth Not available.
UV 0 out of 12
Pollen 4.70 out of 12
Air Quality Not available.
Flu Activity Not available.
METAR KLKV 280355Z AUTO 35006KT 10SM CLR 23/02 A3022 RMK AO1

More Conditions Fewer Conditions

10-Day Weather Forecast

Almanac

Astronomy

Jul. 27, 2014 Rise Set
Actual Time 5:46 AM PDT 8:23 PM PDT
Civil Twilight 5:14 AM PDT 8:55 PM PDT
Nautical Twilight 4:34 AM PDT 9:35 PM PDT
Astronomical Twilight 3:48 AM PDT 10:20 PM PDT
Moon 6:40 AM PDT (7/27) 8:32 PM PDT (7/27)
Length of Visible Light 15h 40m
Length of Day
14h 36m
Tomorrow will be 2m 1s shorter.
New Moon, 1% of the Moon is Illuminated
Jul 28
New Moon
Aug 3
First Quarter
Aug 10
Full
Aug 17
Last Quarter
Aug 25
New

Today's Extremes

State Highs State Lows

Community

WunderPhotos

Upload Photos

1,738,299 photos uploaded!

Nearby

Snow Depth

Station Depth Elevation
Fish Creek 0 in 7900 ft
Strawberry 0 in 5760 ft
Sevenmile Marsh 0 in 6200 ft
Fourmile Lake 1 in 6000 ft
Fish Lake 0 in 4665 ft

Earthquake Activity

City Distance Mag. Time & Date
Lakeview, Oregon 21 miles 2.5 9:12 PM PDT
2014-07-22
La Pine, Oregon 134 miles 2.6 11:50 AM PDT
2014-07-21
Minimum magnitude displayed is 2.5.

Coastal Water Temperatures

Place Temperature
No Stations Reporting

Nearby Weather Stations

Station Location Temp. Heat Index Dew Point Humidity Wind Precip. Elev Updated Type
RAWS CATNIP MOUNTAIN NV, Adel, OR 81 °F 79 °F 26 °F 13% North  at  7 mph 0.00 in / hr 5750 ft 8:27 PM PDT MADIS
RAWS BARREL SPRINGS NV, Fort Bidwell, CA 78 °F 77 °F 27 °F 15% NNW  at  15 mph 0.00 in / hr 5730 ft 7:59 PM PDT MADIS
RAWS ROCK CREEK OR, Plush, OR 74 °F 76 °F 30 °F 20% NW  at  19 mph 0.00 in / hr 5649 ft 8:27 PM PDT MADIS

Show More Stations Show Fewer Stations